createdAt,value
2023-04-28T00:00:43.866Z,8.80
2023-04-28T00:03:13.662Z,9.20
2023-04-28T00:05:42.372Z,8.70
2023-04-28T00:08:10.746Z,8.65
2023-04-28T00:10:39.066Z,8.25
2023-04-28T00:13:07.370Z,9.13
2023-04-28T00:15:35.812Z,9.43
2023-04-28T00:18:04.165Z,8.82
2023-04-28T00:20:33.945Z,9.10
2023-04-28T00:23:02.416Z,8.80
2023-04-28T00:25:31.191Z,9.00
2023-04-28T00:27:59.807Z,9.13
2023-04-28T00:30:28.169Z,8.98
2023-04-28T00:32:56.632Z,9.25
2023-04-28T00:35:25.051Z,9.02
2023-04-28T00:37:54.729Z,9.25
2023-04-28T00:40:23.117Z,8.63
2023-04-28T00:42:51.473Z,9.38
2023-04-28T00:45:19.943Z,9.57
2023-04-28T00:47:48.649Z,10.00
2023-04-28T00:50:18.641Z,9.13
2023-04-28T00:52:47.006Z,9.68
2023-04-28T00:55:17.841Z,9.55
2023-04-28T00:57:46.828Z,9.60
2023-04-28T01:00:17.279Z,9.50
2023-04-28T01:02:46.191Z,9.15
2023-04-28T01:05:16.143Z,9.73
2023-04-28T01:07:44.463Z,9.07
2023-04-28T01:10:12.867Z,8.98
2023-04-28T01:12:42.695Z,8.68
2023-04-28T01:15:17.637Z,9.35
2023-04-28T01:17:47.344Z,8.75
2023-04-28T01:20:15.877Z,8.52
2023-04-28T01:22:44.247Z,9.13
2023-04-28T01:25:13.932Z,9.25
2023-04-28T01:27:42.510Z,9.18
2023-04-28T01:30:11.745Z,9.38
2023-04-28T01:32:40.307Z,8.68
2023-04-28T01:35:10.218Z,9.57
2023-04-28T01:37:38.601Z,8.52
2023-04-28T01:40:08.556Z,9.90
2023-04-28T01:42:38.262Z,8.77
2023-04-28T01:45:07.679Z,8.45
2023-04-28T01:47:36.150Z,9.63
2023-04-28T01:50:04.979Z,8.98
2023-04-28T01:52:33.643Z,8.75
2023-04-28T01:55:02.316Z,8.57
2023-04-28T01:57:30.690Z,9.10
2023-04-28T02:00:00.820Z,8.93
2023-04-28T02:02:29.190Z,8.80
2023-04-28T02:04:58.221Z,9.07
2023-04-28T02:07:26.685Z,9.05
2023-04-28T02:09:54.964Z,8.80
2023-04-28T02:12:23.302Z,9.10
2023-04-28T02:14:52.229Z,10.05
2023-04-28T02:17:22.075Z,8.45
2023-04-28T02:19:56.364Z,9.20
2023-04-28T02:22:24.957Z,8.77
2023-04-28T02:24:53.359Z,8.77
2023-04-28T02:27:22.907Z,8.82
2023-04-28T02:29:51.709Z,8.95
2023-04-28T02:32:21.808Z,8.90
2023-04-28T02:34:55.409Z,8.90
2023-04-28T02:37:23.765Z,7.85
2023-04-28T02:39:52.139Z,8.55
2023-04-28T02:42:21.005Z,8.75
2023-04-28T02:44:49.545Z,8.55
2023-04-28T02:47:17.941Z,9.45
2023-04-28T02:49:47.744Z,8.65
2023-04-28T02:52:16.316Z,9.05
2023-04-28T02:54:48.729Z,9.40
2023-04-28T02:57:17.212Z,9.68
2023-04-28T02:59:45.551Z,9.25
2023-04-28T03:02:13.928Z,8.80
2023-04-28T03:04:42.322Z,9.15
2023-04-28T03:07:12.090Z,8.43
2023-04-28T03:09:42.205Z,8.90
2023-04-28T03:12:10.732Z,9.27
2023-04-28T03:14:39.019Z,9.60
2023-04-28T03:17:07.581Z,9.02
2023-04-28T03:19:36.395Z,10.30
2023-04-28T03:22:04.765Z,10.25
2023-04-28T03:24:34.413Z,10.02
2023-04-28T03:27:03.772Z,9.95
2023-04-28T03:29:32.107Z,9.95
2023-04-28T03:32:00.730Z,9.48
2023-04-28T03:34:29.163Z,9.55
2023-04-28T03:36:57.549Z,10.23
2023-04-28T03:39:25.845Z,9.95
2023-04-28T03:41:55.572Z,9.48
2023-04-28T03:44:24.345Z,10.13
2023-04-28T03:46:52.667Z,10.25
2023-04-28T03:49:21.086Z,10.07
2023-04-28T03:51:51.293Z,9.98
2023-04-28T03:54:19.611Z,9.88
2023-04-28T03:56:48.041Z,10.20
2023-04-28T03:59:18.056Z,10.60
2023-04-28T04:01:46.585Z,9.88
2023-04-28T04:04:15.129Z,10.95
2023-04-28T04:06:43.781Z,10.45
2023-04-28T04:09:12.127Z,10.93
2023-04-28T04:11:40.658Z,11.02
2023-04-28T04:14:09.068Z,11.15
2023-04-28T04:16:38.907Z,11.10
2023-04-28T04:19:07.202Z,11.43
2023-04-28T04:21:37.097Z,11.65
2023-04-28T04:24:05.987Z,11.48
2023-04-28T04:26:34.277Z,11.07
2023-04-28T04:29:02.708Z,12.20
2023-04-28T04:31:31.203Z,12.43
2023-04-28T04:34:00.949Z,12.00
2023-04-28T04:36:29.330Z,12.48
2023-04-28T04:38:57.693Z,12.57
2023-04-28T04:41:27.837Z,12.98
2023-04-28T04:43:56.208Z,13.50
2023-04-28T04:46:24.692Z,14.02
2023-04-28T04:48:53.038Z,14.43
2023-04-28T04:51:22.744Z,14.80
2023-04-28T04:53:50.991Z,15.15
2023-04-28T04:56:19.467Z,15.40
2023-04-28T04:58:47.970Z,15.77
2023-04-28T05:01:16.326Z,15.38
2023-04-28T05:03:44.743Z,16.30
2023-04-28T05:06:13.268Z,15.00
2023-04-28T05:08:43.006Z,14.82
2023-04-28T05:11:11.832Z,16.42
2023-04-28T05:13:40.726Z,15.68
2023-04-28T05:16:09.222Z,16.45
2023-04-28T05:18:37.575Z,15.25
2023-04-28T05:21:06.365Z,16.45
2023-04-28T05:23:34.704Z,16.48
2023-04-28T05:26:04.902Z,16.50
2023-04-28T05:28:33.190Z,16.75
2023-04-28T05:31:01.610Z,16.50
2023-04-28T05:33:31.103Z,18.15
2023-04-28T05:35:59.760Z,16.63
2023-04-28T05:38:28.291Z,16.77
2023-04-28T05:40:56.626Z,17.55
2023-04-28T05:43:26.378Z,16.23
2023-04-28T05:45:54.831Z,17.35
2023-04-28T05:48:23.285Z,17.92
2023-04-28T05:50:51.650Z,18.25
2023-04-28T05:53:19.972Z,16.83
2023-04-28T05:55:48.910Z,17.77
2023-04-28T05:58:17.190Z,18.23
2023-04-28T06:00:46.958Z,18.27
2023-04-28T06:03:18.854Z,17.65
2023-04-28T06:05:47.743Z,19.00
2023-04-28T06:08:16.158Z,18.42
2023-04-28T06:10:44.483Z,19.42
2023-04-28T06:13:14.476Z,18.73
2023-04-28T06:15:43.520Z,18.90
2023-04-28T06:18:19.117Z,19.50
2023-04-28T06:20:52.497Z,19.75
2023-04-28T06:23:20.824Z,19.27
2023-04-28T06:25:49.585Z,20.52
2023-04-28T06:28:18.123Z,21.33
2023-04-28T06:30:46.592Z,21.63
2023-04-28T06:33:16.281Z,20.08
2023-04-28T06:35:44.668Z,21.02
2023-04-28T06:38:12.960Z,24.15
2023-04-28T06:40:41.755Z,22.33
2023-04-28T06:43:10.082Z,23.33
2023-04-28T06:45:38.637Z,23.15
2023-04-28T06:48:08.258Z,23.85
2023-04-28T06:50:38.681Z,23.27
2023-04-28T06:53:07.639Z,22.25
2023-04-28T06:55:36.372Z,22.30
2023-04-28T06:58:04.769Z,22.75
2023-04-28T07:00:33.256Z,23.60
2023-04-28T07:03:02.211Z,23.98
2023-04-28T07:05:30.702Z,24.15
2023-04-28T07:08:00.732Z,24.92
2023-04-28T07:10:29.093Z,23.88
2023-04-28T07:12:58.968Z,23.30
2023-04-28T07:15:27.375Z,24.13
2023-04-28T07:17:55.770Z,26.27
2023-04-28T07:20:24.279Z,26.42
2023-04-28T07:22:52.792Z,25.67
2023-04-28T07:25:22.677Z,26.10
2023-04-28T07:27:51.609Z,25.67
2023-04-28T07:32:53.964Z,25.73
2023-04-28T07:35:22.740Z,26.67
2023-04-28T07:37:51.239Z,27.70
2023-04-28T07:40:22.002Z,27.27
2023-04-28T07:42:50.444Z,27.75
2023-04-28T07:45:18.818Z,28.27
2023-04-28T07:47:47.377Z,28.23
2023-04-28T07:50:16.217Z,26.58
2023-04-28T07:52:44.683Z,27.67
2023-04-28T07:55:13.003Z,27.73
2023-04-28T07:57:43.226Z,28.88
2023-04-28T08:00:12.691Z,27.88
2023-04-28T08:02:41.371Z,26.52
2023-04-28T08:05:11.033Z,26.98
2023-04-28T08:07:39.887Z,27.17
2023-04-28T08:10:10.466Z,26.52
2023-04-28T08:12:40.905Z,28.20
2023-04-28T08:15:12.868Z,28.00
2023-04-28T08:17:41.956Z,28.35
2023-04-28T08:20:11.576Z,27.02
2023-04-28T08:22:40.268Z,27.80
2023-04-28T08:25:12.048Z,27.85
2023-04-28T08:27:40.777Z,28.08
2023-04-28T08:30:11.791Z,27.70
2023-04-28T08:32:40.425Z,27.40
2023-04-28T08:35:09.700Z,27.92
2023-04-28T08:37:38.092Z,26.83
2023-04-28T08:40:11.291Z,28.55
2023-04-28T08:42:40.028Z,27.27
2023-04-28T08:45:11.470Z,28.70
2023-04-28T08:47:45.953Z,28.23
2023-04-28T08:50:15.707Z,28.58
2023-04-28T08:52:44.645Z,29.63
2023-04-28T08:55:14.403Z,28.10
2023-04-28T08:57:48.245Z,30.13
2023-04-28T09:00:18.632Z,27.63
2023-04-28T09:02:47.292Z,28.23
2023-04-28T09:05:16.200Z,28.45
2023-04-28T09:07:52.285Z,28.48
2023-04-28T09:10:23.222Z,27.60
2023-04-28T09:12:55.734Z,28.23
2023-04-28T09:15:33.332Z,28.52
2023-04-28T09:18:03.992Z,27.60
2023-04-28T09:20:34.429Z,28.05
2023-04-28T09:23:17.485Z,27.17
2023-04-28T09:26:04.744Z,28.25
2023-04-28T09:28:33.637Z,24.83
2023-04-28T09:31:04.035Z,23.80
2023-04-28T09:33:32.640Z,24.58
2023-04-28T09:36:01.209Z,21.92
2023-04-28T09:38:29.524Z,21.98
2023-04-28T09:41:00.383Z,20.40
2023-04-28T09:43:31.263Z,19.17
2023-04-28T09:46:04.466Z,19.38
2023-04-28T09:48:35.002Z,16.85
2023-04-28T09:51:06.035Z,15.38
2023-04-28T09:53:35.703Z,14.57
2023-04-28T09:56:06.531Z,13.80
2023-04-28T09:58:41.958Z,13.48
2023-04-28T10:01:13.044Z,13.13
2023-04-28T10:03:42.078Z,11.90
2023-04-28T10:06:10.796Z,13.32
2023-04-28T10:08:40.278Z,12.00
2023-04-28T10:11:10.072Z,12.68
2023-04-28T10:13:39.044Z,11.38
2023-04-28T10:16:09.396Z,10.40
2023-04-28T10:18:39.408Z,10.15
2023-04-28T10:21:09.534Z,10.10
2023-04-28T10:24:21.947Z,10.85
2023-04-28T10:27:11.341Z,10.90
2023-04-28T10:29:39.794Z,10.55
2023-04-28T10:32:28.928Z,10.07
2023-04-28T10:35:48.145Z,10.10
2023-04-28T10:38:17.719Z,9.45
2023-04-28T10:40:50.594Z,8.85
2023-04-28T10:43:40.675Z,7.57
2023-04-28T10:46:12.396Z,8.13
2023-04-28T10:48:57.743Z,4.68
2023-04-28T10:51:33.719Z,4.03
2023-04-28T10:54:20.652Z,5.57
2023-04-28T10:57:23.194Z,5.82
2023-04-28T10:59:53.149Z,6.72
2023-04-28T11:02:44.414Z,7.53
2023-04-28T11:05:19.231Z,8.20
2023-04-28T11:08:37.231Z,8.20
2023-04-28T11:11:26.732Z,7.65
2023-04-28T11:13:56.865Z,6.80
2023-04-28T11:16:27.040Z,4.65
2023-04-28T11:19:11.813Z,3.28
2023-04-28T11:21:41.873Z,2.30
2023-04-28T11:24:12.967Z,2.50
2023-04-28T11:26:42.560Z,2.47
2023-04-28T11:29:11.751Z,2.20
2023-04-28T11:31:42.135Z,2.53
2023-04-28T11:34:14.551Z,2.55
2023-04-28T11:36:43.649Z,2.72
2023-04-28T11:39:15.399Z,2.50
2023-04-28T11:41:45.807Z,2.70
2023-04-28T11:44:15.129Z,2.58
2023-04-28T11:46:50.716Z,2.60
2023-04-28T11:49:20.506Z,2.63
2023-04-28T11:51:50.220Z,3.17
2023-04-28T11:54:25.449Z,2.75
2023-04-28T11:56:54.745Z,2.67
2023-04-28T11:59:27.529Z,2.95
2023-04-28T12:01:59.302Z,3.00
2023-04-28T12:04:30.561Z,2.92
2023-04-28T12:07:15.048Z,3.20
2023-04-28T12:09:48.232Z,3.15
2023-04-28T12:12:18.515Z,3.28
2023-04-28T12:14:58.592Z,2.78
2023-04-28T12:17:27.782Z,2.88
2023-04-28T12:19:56.924Z,2.70
2023-04-28T12:22:26.283Z,2.70
2023-04-28T12:25:08.162Z,2.70
2023-04-28T12:27:40.292Z,3.05
2023-04-28T12:30:26.886Z,3.03
2023-04-28T12:32:57.784Z,3.08
2023-04-28T12:35:27.216Z,3.67
2023-04-28T12:37:58.625Z,4.05
2023-04-28T12:40:28.702Z,4.20
2023-04-28T12:42:57.424Z,3.75
2023-04-28T12:45:26.344Z,4.28
2023-04-28T12:47:57.165Z,3.75
2023-04-28T12:50:25.732Z,4.45
2023-04-28T12:52:54.150Z,4.57
2023-04-28T12:55:22.513Z,5.32
2023-04-28T12:57:52.394Z,5.72
2023-04-28T13:00:23.368Z,6.47
2023-04-28T13:02:52.081Z,6.03
2023-04-28T13:05:20.997Z,5.78
2023-04-28T13:07:52.614Z,6.13
2023-04-28T13:10:22.452Z,6.07
2023-04-28T13:12:52.193Z,5.82
2023-04-28T13:15:21.043Z,5.22
2023-04-28T13:17:52.293Z,5.47
2023-04-28T13:20:20.632Z,4.90
2023-04-28T13:22:52.270Z,5.75
2023-04-28T13:25:20.779Z,5.15
2023-04-28T13:27:49.321Z,5.90
2023-04-28T13:30:19.248Z,5.60
2023-04-28T13:32:47.901Z,6.95
2023-04-28T13:35:17.844Z,5.35
2023-04-28T13:37:49.184Z,6.40
2023-04-28T13:40:17.809Z,7.05
2023-04-28T13:42:47.040Z,6.53
2023-04-28T13:45:17.492Z,6.82
2023-04-28T13:47:48.247Z,7.35
2023-04-28T13:50:20.194Z,7.25
2023-04-28T13:52:49.707Z,7.65
2023-04-28T13:55:18.952Z,8.40
2023-04-28T13:57:50.153Z,9.70
2023-04-28T14:00:22.341Z,10.30
2023-04-28T14:02:52.368Z,10.02
2023-04-28T14:05:21.343Z,10.70
2023-04-28T14:07:49.850Z,10.57
2023-04-28T14:10:20.829Z,12.52
2023-04-28T14:12:49.538Z,11.15
2023-04-28T14:15:19.054Z,11.82
2023-04-28T14:17:50.071Z,12.35
2023-04-28T14:20:20.340Z,12.55
2023-04-28T14:22:48.909Z,12.43
2023-04-28T14:25:18.824Z,12.23
2023-04-28T14:27:48.048Z,12.75
2023-04-28T14:30:16.448Z,13.25
2023-04-28T14:32:45.165Z,12.40
2023-04-28T14:35:15.349Z,12.25
2023-04-28T14:37:51.936Z,10.88
2023-04-28T14:40:20.429Z,10.88
2023-04-28T14:42:52.245Z,11.57
2023-04-28T14:45:21.059Z,11.20
2023-04-28T14:47:49.885Z,10.70
2023-04-28T14:50:18.642Z,11.35
2023-04-28T14:52:50.872Z,10.75
2023-04-28T14:55:19.419Z,10.57
2023-04-28T14:57:48.365Z,10.13
2023-04-28T15:00:18.687Z,10.43
2023-04-28T15:02:47.167Z,10.13
2023-04-28T15:05:20.154Z,9.68
2023-04-28T15:07:50.272Z,10.48
2023-04-28T15:10:18.815Z,10.18
2023-04-28T15:12:49.746Z,9.95
2023-04-28T15:15:18.062Z,10.27
2023-04-28T15:17:48.979Z,10.10
2023-04-28T15:20:17.505Z,9.55
2023-04-28T15:22:48.100Z,10.27
2023-04-28T15:25:18.023Z,10.18
2023-04-28T15:27:50.330Z,10.07
2023-04-28T15:30:20.461Z,10.70
2023-04-28T15:32:50.837Z,10.52
2023-04-28T15:35:19.361Z,10.57
2023-04-28T15:37:49.605Z,11.23
2023-04-28T15:40:21.319Z,11.07
2023-04-28T15:42:51.699Z,11.85
2023-04-28T15:45:21.702Z,10.60
2023-04-28T15:47:52.979Z,11.30
2023-04-28T15:50:22.132Z,10.75
2023-04-28T15:52:51.355Z,10.98
2023-04-28T15:55:26.148Z,11.20
2023-04-28T15:57:54.723Z,10.80
2023-04-28T16:00:23.100Z,11.30
2023-04-28T16:02:51.913Z,10.85
2023-04-28T16:05:20.598Z,10.57
2023-04-28T16:07:49.938Z,11.13
2023-04-28T16:10:20.158Z,9.20
2023-04-28T16:12:50.291Z,9.35
2023-04-28T16:15:19.161Z,8.80
2023-04-28T16:17:52.086Z,8.55
2023-04-28T16:20:21.002Z,8.15
2023-04-28T16:22:49.591Z,8.35
2023-04-28T16:25:18.518Z,8.75
2023-04-28T16:27:47.226Z,7.32
2023-04-28T16:30:17.871Z,7.13
2023-04-28T16:33:18.924Z,7.18
2023-04-28T16:35:56.353Z,7.30
2023-04-28T16:38:25.117Z,6.88
2023-04-28T16:40:53.552Z,7.50
2023-04-28T16:43:22.522Z,7.57
2023-04-28T16:45:52.469Z,8.23
2023-04-28T16:48:21.689Z,8.00
2023-04-28T16:50:50.082Z,8.27
2023-04-28T16:53:18.723Z,8.88
2023-04-28T16:55:47.138Z,8.43
2023-04-28T16:58:15.571Z,8.43
2023-04-28T17:00:44.043Z,8.93
2023-04-28T17:03:15.007Z,8.40
2023-04-28T17:05:43.641Z,7.28
2023-04-28T17:08:12.212Z,7.45
2023-04-28T17:10:40.965Z,7.32
2023-04-28T17:13:10.189Z,6.60
2023-04-28T17:15:39.181Z,6.57
2023-04-28T17:18:07.612Z,7.53
2023-04-28T17:20:38.565Z,7.55
2023-04-28T17:23:07.117Z,8.02
2023-04-28T17:25:35.907Z,9.18
2023-04-28T17:28:04.543Z,8.55
2023-04-28T17:30:33.209Z,9.40
2023-04-28T17:33:02.150Z,7.65
2023-04-28T17:35:30.903Z,8.18
2023-04-28T17:38:01.157Z,8.20
2023-04-28T17:40:29.785Z,7.45
2023-04-28T17:42:58.269Z,7.72
2023-04-28T17:45:26.718Z,6.93
2023-04-28T17:47:56.504Z,6.75
2023-04-28T17:50:25.896Z,6.13
2023-04-28T17:52:54.290Z,6.25
2023-04-28T17:55:24.463Z,6.22
2023-04-28T17:57:53.277Z,6.78
2023-04-28T18:00:22.289Z,6.90
2023-04-28T18:02:52.599Z,6.07
2023-04-28T18:05:24.074Z,7.63
2023-04-28T18:07:52.444Z,7.97
2023-04-28T18:10:20.871Z,7.93
2023-04-28T18:12:53.501Z,8.07
2023-04-28T18:15:22.252Z,9.05
2023-04-28T18:17:50.751Z,8.25
2023-04-28T18:20:19.446Z,11.32
2023-04-28T18:22:48.135Z,12.57
2023-04-28T18:25:19.141Z,13.75
2023-04-28T18:27:47.865Z,16.15
2023-04-28T18:30:17.756Z,17.25
2023-04-28T18:32:49.200Z,17.45
2023-04-28T18:35:18.211Z,21.40
2023-04-28T18:37:47.585Z,22.27
2023-04-28T18:40:16.156Z,22.38
2023-04-28T18:42:44.497Z,24.98
2023-04-28T18:45:13.272Z,23.85
2023-04-28T18:47:43.756Z,24.40
2023-04-28T18:50:12.281Z,25.73
2023-04-28T18:52:40.822Z,26.15
2023-04-28T18:55:09.696Z,27.30
2023-04-28T18:57:42.989Z,25.45
2023-04-28T19:00:11.849Z,26.17
2023-04-28T19:02:40.575Z,27.17
2023-04-28T19:05:11.701Z,26.98
2023-04-28T19:07:40.811Z,28.00
2023-04-28T19:10:10.522Z,28.50
2023-04-28T19:12:38.980Z,29.17
2023-04-28T19:15:08.663Z,29.38
2023-04-28T19:17:37.134Z,29.05
2023-04-28T19:20:06.778Z,29.13
2023-04-28T19:22:38.690Z,29.55
2023-04-28T19:25:07.860Z,29.92
2023-04-28T19:27:39.427Z,28.92
2023-04-28T19:30:11.002Z,28.05
2023-04-28T19:32:40.372Z,28.27
2023-04-28T19:35:10.486Z,27.73
2023-04-28T19:37:42.401Z,27.65
2023-04-28T19:40:12.825Z,28.10
2023-04-28T19:42:41.900Z,28.08
2023-04-28T19:45:11.822Z,27.80
2023-04-28T19:47:40.710Z,27.83
2023-04-28T19:50:11.447Z,26.15
2023-04-28T19:52:41.748Z,28.10
2023-04-28T19:55:11.192Z,27.20
2023-04-28T19:57:40.035Z,28.35
2023-04-28T20:00:10.318Z,28.85
2023-04-28T20:02:38.823Z,28.98
2023-04-28T20:05:08.668Z,25.63
2023-04-28T20:07:42.664Z,25.60
2023-04-28T20:10:11.732Z,24.42
2023-04-28T20:12:40.326Z,26.90
2023-04-28T20:15:10.210Z,27.73
2023-04-28T20:17:38.663Z,28.13
2023-04-28T20:20:08.901Z,28.02
2023-04-28T20:22:37.789Z,29.83
2023-04-28T20:25:40.698Z,32.58
2023-04-28T20:28:09.618Z,34.08
2023-04-28T20:30:38.586Z,31.38
2023-04-28T20:33:10.615Z,30.85
2023-04-28T20:35:39.525Z,31.85
2023-04-28T20:38:12.402Z,29.42
2023-04-28T20:40:42.426Z,32.97
2023-04-28T20:43:10.833Z,33.78
2023-04-28T20:45:41.894Z,32.33
2023-04-28T20:48:11.739Z,34.70
2023-04-28T20:50:41.331Z,33.90
2023-04-28T20:53:14.730Z,34.17
2023-04-28T20:55:50.259Z,35.67
2023-04-28T20:58:19.039Z,35.58
2023-04-28T21:00:47.712Z,30.95
2023-04-28T21:03:16.502Z,32.80
2023-04-28T21:05:49.212Z,33.10
2023-04-28T21:08:17.695Z,36.55
2023-04-28T21:10:47.890Z,34.40
2023-04-28T21:13:16.390Z,33.92
2023-04-28T21:15:44.881Z,34.20
2023-04-28T21:18:13.291Z,34.22
2023-04-28T21:20:42.157Z,32.33
2023-04-28T21:23:10.611Z,32.92
2023-04-28T21:25:39.197Z,32.92
2023-04-28T21:28:09.391Z,33.55
2023-04-28T21:30:39.331Z,32.88
2023-04-28T21:33:11.063Z,34.25
2023-04-28T21:35:39.617Z,30.75
2023-04-28T21:38:07.953Z,29.85
2023-04-28T21:40:36.392Z,30.27
2023-04-28T21:43:06.008Z,30.13
2023-04-28T21:45:36.190Z,31.02
2023-04-28T21:48:06.714Z,31.58
2023-04-28T21:50:36.887Z,31.75
2023-04-28T21:53:05.456Z,32.58
2023-04-28T21:55:33.739Z,32.78
2023-04-28T21:58:03.397Z,33.88
2023-04-28T22:00:31.743Z,30.88
2023-04-28T22:03:03.893Z,32.33
2023-04-28T22:05:32.432Z,30.15
2023-04-28T22:08:03.094Z,25.88
2023-04-28T22:10:33.863Z,26.55
2023-04-28T22:13:02.550Z,25.55
2023-04-28T22:15:31.034Z,25.17
2023-04-28T22:18:00.908Z,24.83
2023-04-28T22:20:29.412Z,25.25
2023-04-28T22:22:58.684Z,24.55
2023-04-28T22:25:27.266Z,23.20
2023-04-28T22:27:55.639Z,22.85
2023-04-28T22:30:25.991Z,23.15
2023-04-28T22:32:54.982Z,22.15
2023-04-28T22:35:24.700Z,21.88
2023-04-28T22:37:53.054Z,21.25
2023-04-28T22:40:21.675Z,20.98
2023-04-28T22:42:50.167Z,21.27
2023-04-28T22:45:18.488Z,21.42
2023-04-28T22:47:46.896Z,20.90
2023-04-28T22:50:15.297Z,21.05
2023-04-28T22:52:45.388Z,22.75
2023-04-28T22:55:14.420Z,21.88
2023-04-28T22:57:43.559Z,21.05
2023-04-28T23:00:15.698Z,21.50
2023-04-28T23:02:45.226Z,20.65
2023-04-28T23:05:14.019Z,20.00
2023-04-28T23:07:43.853Z,18.55
2023-04-28T23:10:14.610Z,19.38
2023-04-28T23:12:43.982Z,18.05
2023-04-28T23:15:13.162Z,17.95
2023-04-28T23:17:42.656Z,17.40
2023-04-28T23:20:12.654Z,18.50
2023-04-28T23:22:41.109Z,18.50
2023-04-28T23:25:11.751Z,19.58
2023-04-28T23:27:40.399Z,18.48
2023-04-28T23:30:10.878Z,19.48
2023-04-28T23:32:39.789Z,20.08
2023-04-28T23:35:09.741Z,20.73
2023-04-28T23:37:38.137Z,20.38
2023-04-28T23:40:08.758Z,22.83
2023-04-28T23:42:38.597Z,23.73
2023-04-28T23:45:09.076Z,21.10
2023-04-28T23:47:37.531Z,21.58
2023-04-28T23:50:07.263Z,21.10
2023-04-28T23:52:40.417Z,19.73
2023-04-28T23:55:12.932Z,20.35
2023-04-28T23:57:43.330Z,21.98
